createdAt,value
2023-02-25T00:03:56.875Z,2.85
2023-02-25T00:09:01.981Z,2.78
2023-02-25T00:14:05.917Z,3.53
2023-02-25T00:19:10.555Z,3.22
2023-02-25T00:24:17.168Z,2.92
2023-02-25T00:29:22.162Z,3.53
2023-02-25T00:34:26.179Z,3.28
2023-02-25T00:39:42.941Z,2.42
2023-02-25T00:44:48.168Z,2.45
2023-02-25T00:49:52.402Z,2.55
2023-02-25T00:54:57.563Z,2.90
2023-02-25T01:00:01.383Z,2.80
2023-02-25T01:05:05.447Z,2.47
2023-02-25T01:10:12.269Z,2.00
2023-02-25T01:15:16.267Z,3.17
2023-02-25T01:20:22.460Z,4.20
2023-02-25T01:25:27.701Z,3.37
2023-02-25T01:30:31.400Z,2.90
2023-02-25T01:35:36.907Z,3.37
2023-02-25T01:40:42.069Z,3.03
2023-02-25T01:45:46.151Z,2.95
2023-02-25T01:50:52.963Z,4.47
2023-02-25T01:56:00.184Z,3.22
2023-02-25T02:01:04.166Z,2.67
2023-02-25T02:06:11.913Z,2.58
2023-02-25T02:11:18.331Z,3.35
2023-02-25T02:16:54.862Z,2.78
2023-02-25T02:22:08.384Z,2.60
2023-02-25T02:27:15.622Z,2.97
2023-02-25T02:32:32.356Z,3.23
2023-02-25T02:37:43.739Z,3.72
2023-02-25T02:42:58.481Z,2.83
2023-02-25T02:48:07.426Z,3.25
2023-02-25T02:53:17.546Z,2.92
2023-02-25T02:58:27.166Z,2.87
2023-02-25T03:03:37.933Z,3.05
2023-02-25T03:08:45.730Z,4.12
2023-02-25T03:19:01.004Z,3.08
2023-02-25T03:24:09.554Z,3.08
2023-02-25T03:29:17.747Z,3.35
2023-02-25T03:39:33.087Z,3.58
2023-02-25T03:44:42.400Z,2.30
2023-02-25T03:49:51.698Z,3.22
2023-02-25T03:54:57.570Z,2.83
2023-02-25T04:00:02.223Z,4.10
2023-02-25T04:05:08.812Z,3.00
2023-02-25T04:10:14.552Z,3.33
2023-02-25T04:15:19.022Z,2.75
2023-02-25T04:20:24.775Z,3.08
2023-02-25T04:25:29.007Z,2.90
2023-02-25T04:30:34.389Z,3.12
2023-02-25T04:35:40.454Z,2.60
2023-02-25T04:40:44.155Z,2.70
2023-02-25T04:45:48.172Z,2.37
2023-02-25T04:50:53.171Z,2.67
2023-02-25T04:55:56.854Z,3.00
2023-02-25T05:01:01.552Z,2.62
2023-02-25T05:06:08.911Z,2.35
2023-02-25T05:11:12.713Z,2.90
2023-02-25T05:16:18.585Z,2.67
2023-02-25T05:21:25.971Z,3.40
2023-02-25T05:26:29.754Z,2.70
2023-02-25T05:31:33.602Z,2.53
2023-02-25T05:36:38.713Z,3.35
2023-02-25T05:41:42.535Z,2.42
2023-02-25T05:46:46.292Z,3.50
2023-02-25T05:51:51.868Z,4.07
2023-02-25T05:56:55.542Z,3.37
2023-02-25T06:01:59.295Z,3.40
2023-02-25T06:07:04.689Z,3.33
2023-02-25T06:12:09.206Z,2.90
2023-02-25T06:17:12.891Z,3.55
2023-02-25T06:22:17.883Z,2.80
2023-02-25T06:27:22.209Z,3.42
2023-02-25T06:32:26.025Z,3.08
2023-02-25T06:37:31.128Z,3.60
2023-02-25T06:42:34.908Z,3.95
2023-02-25T06:47:38.620Z,3.12
2023-02-25T06:52:43.698Z,3.53
2023-02-25T06:57:47.415Z,3.15
2023-02-25T07:02:51.588Z,4.05
2023-02-25T07:07:56.713Z,4.32
2023-02-25T07:13:00.787Z,3.70
2023-02-25T07:18:05.120Z,3.25
2023-02-25T07:23:10.159Z,2.90
2023-02-25T07:28:13.905Z,4.03
2023-02-25T07:33:17.612Z,5.18
2023-02-25T07:38:22.761Z,3.25
2023-02-25T07:43:26.460Z,2.72
2023-02-25T07:48:30.434Z,3.50
2023-02-25T07:53:35.825Z,3.80
2023-02-25T07:58:40.331Z,2.90
2023-02-25T08:03:44.019Z,3.60
2023-02-25T08:08:50.831Z,3.70
2023-02-25T08:13:55.131Z,2.75
2023-02-25T08:18:59.336Z,2.75
2023-02-25T08:24:04.558Z,3.85
2023-02-25T08:29:08.611Z,2.60
2023-02-25T08:34:12.318Z,3.03
2023-02-25T08:39:18.386Z,3.60
2023-02-25T08:44:22.542Z,2.78
2023-02-25T08:49:26.385Z,3.40
2023-02-25T08:54:31.546Z,2.60
2023-02-25T08:59:36.805Z,3.47
2023-02-25T09:04:40.600Z,2.95
2023-02-25T09:09:45.685Z,4.12
2023-02-25T09:14:50.219Z,3.47
2023-02-25T09:19:53.972Z,4.20
2023-02-25T09:24:59.177Z,3.00
2023-02-25T09:30:02.990Z,3.87
2023-02-25T09:35:07.783Z,3.90
2023-02-25T09:40:18.037Z,4.12
2023-02-25T09:45:25.735Z,4.15
2023-02-25T09:50:34.028Z,3.62
2023-02-25T09:55:41.062Z,3.35
2023-02-25T10:00:49.155Z,4.03
2023-02-25T10:06:01.505Z,3.15
2023-02-25T10:11:12.683Z,2.17
2023-02-25T10:16:36.092Z,2.80
2023-02-25T10:21:55.097Z,2.87
2023-02-25T10:27:11.299Z,3.03
2023-02-25T10:32:20.824Z,3.83
2023-02-25T10:37:29.910Z,3.00
2023-02-25T10:42:35.112Z,2.47
2023-02-25T10:47:41.741Z,2.05
2023-02-25T10:52:56.997Z,2.75
2023-02-25T10:58:02.092Z,2.60
2023-02-25T11:03:06.142Z,1.90
2023-02-25T11:08:27.822Z,1.95
2023-02-25T11:13:36.891Z,1.83
2023-02-25T11:18:42.032Z,0.90
2023-02-25T11:23:48.853Z,1.12
2023-02-25T11:28:54.529Z,0.82
2023-02-25T11:34:01.173Z,0.73
2023-02-25T11:39:14.606Z,0.85
2023-02-25T11:44:24.114Z,0.40
2023-02-25T11:49:38.344Z,0.47
2023-02-25T11:54:53.027Z,0.77
2023-02-25T12:00:11.909Z,0.80
2023-02-25T12:05:28.051Z,1.40
2023-02-25T12:11:00.823Z,0.85
2023-02-25T12:16:41.093Z,0.88
2023-02-25T12:22:14.856Z,1.00
2023-02-25T12:27:58.925Z,1.40
2023-02-25T12:33:11.161Z,1.33
2023-02-25T12:38:50.184Z,0.98
2023-02-25T12:44:01.000Z,1.20
2023-02-25T12:49:31.662Z,1.55
2023-02-25T12:55:01.149Z,1.45
2023-02-25T13:00:45.937Z,1.10
2023-02-25T13:06:04.302Z,1.23
2023-02-25T13:11:19.027Z,1.20
2023-02-25T13:16:48.667Z,1.87
2023-02-25T13:22:04.526Z,1.15
2023-02-25T13:27:28.305Z,1.50
2023-02-25T13:32:39.715Z,2.00
2023-02-25T13:37:52.440Z,1.58
2023-02-25T13:43:09.114Z,1.50
2023-02-25T13:48:39.009Z,1.80
2023-02-25T13:53:59.009Z,1.48
2023-02-25T13:59:23.491Z,1.83
2023-02-25T14:05:00.397Z,2.08
2023-02-25T14:10:41.176Z,1.25
2023-02-25T14:15:59.927Z,2.00
2023-02-25T14:21:22.712Z,1.80
2023-02-25T14:26:35.472Z,1.52
2023-02-25T14:31:58.764Z,1.20
2023-02-25T14:37:27.510Z,1.10
2023-02-25T14:42:47.700Z,1.35
2023-02-25T14:48:01.148Z,1.48
2023-02-25T14:53:45.473Z,1.33
2023-02-25T14:59:11.405Z,1.50
2023-02-25T15:04:45.856Z,1.30
2023-02-25T15:10:27.956Z,1.73
2023-02-25T15:15:59.088Z,1.50
2023-02-25T15:21:38.192Z,1.65
2023-02-25T15:26:45.925Z,1.35
2023-02-25T15:32:16.521Z,1.37
2023-02-25T15:37:28.132Z,1.37
2023-02-25T15:42:43.158Z,1.60
2023-02-25T15:47:48.715Z,1.52
2023-02-25T15:52:57.764Z,1.30
2023-02-25T15:58:01.668Z,1.65
2023-02-25T16:03:27.236Z,1.77
2023-02-25T16:08:39.672Z,1.60
2023-02-25T16:13:44.063Z,1.30
2023-02-25T16:18:50.594Z,1.48
2023-02-25T16:23:56.270Z,2.12
2023-02-25T16:29:10.917Z,1.83
2023-02-25T16:34:22.789Z,1.75
2023-02-25T16:39:29.398Z,1.40
2023-02-25T16:44:38.948Z,1.17
2023-02-25T16:49:46.867Z,1.87
2023-02-25T16:54:57.613Z,1.85
2023-02-25T17:00:21.406Z,1.67
2023-02-25T17:05:29.100Z,1.37
2023-02-25T17:10:43.439Z,1.55
2023-02-25T17:15:47.207Z,1.98
2023-02-25T17:20:51.397Z,1.48
2023-02-25T17:25:59.121Z,1.67
2023-02-25T17:31:09.232Z,2.95
2023-02-25T17:36:15.069Z,2.22
2023-02-25T17:41:22.328Z,1.48
2023-02-25T17:46:36.082Z,2.08
2023-02-25T17:51:39.851Z,2.05
2023-02-25T17:56:45.745Z,1.67
2023-02-25T18:01:54.442Z,1.30
2023-02-25T18:06:58.306Z,1.65
2023-02-25T18:12:05.937Z,1.90
2023-02-25T18:17:26.362Z,1.83
2023-02-25T18:22:35.747Z,1.50
2023-02-25T18:27:40.848Z,1.48
2023-02-25T18:32:44.579Z,1.70
2023-02-25T18:37:50.677Z,1.40
2023-02-25T18:42:55.711Z,1.62
2023-02-25T18:48:00.282Z,1.90
2023-02-25T18:53:04.933Z,2.37
2023-02-25T18:58:15.108Z,2.37
2023-02-25T19:03:25.260Z,2.12
2023-02-25T19:08:29.013Z,1.60
2023-02-25T19:13:36.125Z,2.00
2023-02-25T19:18:41.437Z,2.25
2023-02-25T19:23:45.134Z,2.95
2023-02-25T19:28:50.278Z,2.95
2023-02-25T19:33:53.977Z,2.30
2023-02-25T19:38:57.664Z,2.20
2023-02-25T19:44:03.490Z,1.77
2023-02-25T19:49:07.214Z,2.33
2023-02-25T19:54:11.135Z,3.00
2023-02-25T19:59:16.679Z,1.80
2023-02-25T20:04:20.428Z,1.87
2023-02-25T20:09:24.359Z,2.10
2023-02-25T20:14:32.741Z,3.00
2023-02-25T20:19:36.508Z,2.80
2023-02-25T20:24:40.332Z,3.08
2023-02-25T20:29:45.532Z,2.78
2023-02-25T20:34:49.728Z,2.55
2023-02-25T20:39:55.162Z,3.05
2023-02-25T20:45:01.761Z,4.37
2023-02-25T20:50:08.226Z,3.50
2023-02-25T20:55:12.209Z,3.12
2023-02-25T21:00:20.500Z,2.90
2023-02-25T21:05:24.253Z,4.68
2023-02-25T21:10:28.021Z,4.55
2023-02-25T21:15:33.058Z,4.75
2023-02-25T21:20:36.837Z,3.67
2023-02-25T21:25:40.512Z,2.97
2023-02-25T21:30:45.664Z,3.67
2023-02-25T21:35:53.293Z,3.97
2023-02-25T21:40:57.289Z,7.00
2023-02-25T21:46:05.177Z,5.70
2023-02-25T21:51:15.042Z,5.97
2023-02-25T21:56:19.081Z,5.90
2023-02-25T22:01:26.195Z,6.12
2023-02-25T22:06:30.131Z,6.12
2023-02-25T22:11:36.222Z,5.60
2023-02-25T22:16:41.533Z,6.28
2023-02-25T22:21:46.345Z,5.57
2023-02-25T22:26:52.023Z,5.68
2023-02-25T22:31:57.165Z,6.22
2023-02-25T22:37:00.932Z,5.47
2023-02-25T22:42:04.870Z,5.15
2023-02-25T22:47:09.930Z,4.82
2023-02-25T22:52:13.668Z,4.95
2023-02-25T22:57:17.421Z,4.65
2023-02-25T23:02:22.481Z,4.97
2023-02-25T23:07:26.712Z,4.37
2023-02-25T23:12:31.401Z,4.62
2023-02-25T23:17:38.363Z,5.40
2023-02-25T23:22:42.046Z,5.07
2023-02-25T23:27:45.722Z,6.05
2023-02-25T23:32:50.879Z,4.97
2023-02-25T23:37:54.766Z,6.90
2023-02-25T23:42:58.433Z,7.70
2023-02-25T23:48:03.511Z,6.00
2023-02-25T23:53:07.267Z,4.53
2023-02-25T23:58:11.148Z,5.12
